Accueil
METAR-TAF:

METAR-TAF

Aéroports :

Aéroport international de Cochin

Kochi, Inde

latitude: 10-09-07N, longitude: 76-24-07E, altitude: 9 m

Observation

Le bulletin a été fait il y a 39 minutes, à 22:30 UTC
Vent 2 kt de est
Température 27°C
Humidité 89%
Pression 1010 hPa
Visibilité: 3500 m
Quelques nuages à une hauteur de 1500 ft
brume

METAR: VOCI 262230Z 10002KT 3500 BR FEW015 27/25 Q1010 NOSIG

Heure: 04:39 (23:09 UTC)

Prévision

Le bulletin a été fait il y a 9 heures et 9 minutes, à 14:00 UTC
Prévision valable du 26 à 15 UTC au 26 à 24 UTC
Vent 10 kt de ouest/sud-ouest
Visibilité: 4000 m
Quelques nuages à une hauteur de 1500 ft
brume sèche
Evoluant progressivement
du 26 à 18 UTC au 26 à 19 UTC
Vent 3 kt de direction variable
Visibilité: 3000 m
Quelques nuages à une hauteur de 1500 ft
Nuages épars à une hauteur de 8000 ft
brume sèche

TAF: VOCI 261400Z 2615/2624 24010KT 4000 HZ FEW015 BECMG 2618/2619 VRB03KT 3000 HZ FEW015 SCT080

Observations et prévisions météorologiques de plus de 4000 aéroports (messages METAR et TAF).

Les stations disponibles sont représentées par des disques jaunes et rouges sur la carte.

Passer la souris dessus pour voir le nom de la station.

Cliquer dessus pour voir les observations et prévisions météorologiques.

Pour changer de carte: cliquez sur les boutons verts avec une croix noire pour zoomer, sur le bouton vert avec un tiret pour effectuer un zoom arrière, ou sur les flèches vertes pour les cartes adjacentes.


METAR-TAF: